Atascadero, California
Current Conditions -  °F | °C
As of 10:53 AM on Friday 21 Nov 2014 (Local Time) from KPRB Reporting Station
Overcast Overcast  
Wind Chill: 55°   Ceiling: 1100
Heat Index: 55°   Visibility: 10mi
Dew Point: 48°   Wind: 0mph
Humidity: 77%   Direction: NA
Pressure: 30.11"   Gusts: NA
Location:  35.49°N, 120.66°W
Report Text: KPRB 211853Z AUTO 00000KT 10SM OVC011 13/09 A3011 RMK AO2 SLP194 T01280089 TSNO
Loading
Personal Weather Stations






























Interactive Weather Map New forecast layout! Learn more

10-Day Weather Forecast

Advertisements
Track Severe Weather on mobile